Terminal Aerodrome Forecast
Issued by NWS Mobile, AL

Home | Current Version | Previous Version | Text Only | Print | Product List | Glossary On
Versions: 1 2 3 4 5 6 7 8 9 10 11 12 13 14 15 16 17 18 19 20 21 22 23 24 25 26 27 28 29 30 31 32 33 34 35 36 37 38 39 40 41 42 43 44
000
FTUS44 KMOB 221200 AAA
TAFPNS
TAF AMD
KPNS 221238Z 2213/2312 07006KT 6SM -RA BR VCSH OVC003
      TEMPO 2213/2217 1SM RA BR BKN001
     FM221800 13008KT 6SM -RA VCSH OVC010
     FM230000 18007KT 5SM BR VCSH OVC007
     FM230300 18008KT 1 1/2SM BR VCTS OVC007CB PROB30 2306/2312 1SM
      TSRA BR BKN004CB=

USA.gov is the U.S. government's official web portal to all federal, state and local government web resources and services.